createdAt,value
2022-11-06T00:01:14.504Z,6.23
2022-11-06T00:03:43.433Z,6.06
2022-11-06T00:06:28.192Z,6.22
2022-11-06T00:08:54.411Z,6.21
2022-11-06T00:11:20.625Z,5.67
2022-11-06T00:13:52.284Z,4.99
2022-11-06T00:16:18.486Z,5.14
2022-11-06T00:18:44.672Z,5.74
2022-11-06T00:21:10.909Z,5.88
2022-11-06T00:23:37.135Z,5.95
2022-11-06T00:26:03.329Z,5.94
2022-11-06T00:28:29.537Z,5.91
2022-11-06T00:30:55.730Z,5.92
2022-11-06T00:33:21.909Z,5.89
2022-11-06T00:35:48.115Z,5.95
2022-11-06T00:38:14.656Z,5.96
2022-11-06T00:40:41.159Z,5.85
2022-11-06T00:43:07.346Z,5.73
2022-11-06T00:45:33.522Z,5.62
2022-11-06T00:47:59.942Z,5.72
2022-11-06T00:50:26.502Z,5.83
2022-11-06T00:52:53.305Z,5.63
2022-11-06T00:55:19.476Z,5.65
2022-11-06T00:57:45.656Z,5.80
2022-11-06T01:00:11.839Z,5.82
2022-11-06T01:02:38.424Z,5.77
2022-11-06T01:05:04.731Z,5.72
2022-11-06T01:07:30.926Z,5.76
2022-11-06T01:09:57.109Z,5.84
2022-11-06T01:12:23.334Z,5.69
2022-11-06T01:14:49.523Z,5.70
2022-11-06T01:17:15.742Z,5.78
2022-11-06T01:19:41.913Z,5.83
2022-11-06T01:22:08.108Z,5.72
2022-11-06T01:24:34.902Z,5.72
2022-11-06T01:29:47.343Z,5.59
2022-11-06T01:32:13.521Z,5.69
2022-11-06T01:34:39.730Z,5.74
2022-11-06T01:37:06.379Z,5.53
2022-11-06T01:39:34.410Z,5.75
2022-11-06T01:42:00.967Z,5.62
2022-11-06T01:44:27.149Z,5.55
2022-11-06T01:46:53.509Z,5.76
2022-11-06T01:49:19.703Z,5.65
2022-11-06T01:51:45.888Z,5.59
2022-11-06T01:54:12.166Z,5.63
2022-11-06T01:56:38.344Z,5.57
2022-11-06T01:59:04.526Z,5.60
2022-11-06T02:01:30.780Z,5.60
2022-11-06T02:03:57.062Z,5.54
2022-11-06T02:06:23.248Z,5.52
2022-11-06T02:08:49.431Z,5.35
2022-11-06T02:11:15.642Z,5.42
2022-11-06T02:13:41.846Z,5.51
2022-11-06T02:16:09.544Z,5.35
2022-11-06T02:18:36.011Z,5.43
2022-11-06T02:21:02.192Z,5.41
2022-11-06T02:23:28.402Z,5.29
2022-11-06T02:25:54.823Z,5.29
2022-11-06T02:28:21.009Z,5.01
2022-11-06T02:30:47.189Z,5.27
2022-11-06T02:33:13.369Z,5.28
2022-11-06T02:35:39.594Z,5.31
2022-11-06T02:38:05.784Z,5.25
2022-11-06T02:40:33.130Z,5.22
2022-11-06T02:42:59.387Z,5.18
2022-11-06T02:45:25.578Z,5.25
2022-11-06T02:47:51.809Z,5.12
2022-11-06T02:50:18.005Z,5.09
2022-11-06T02:52:44.220Z,5.09
2022-11-06T02:55:10.401Z,5.07
2022-11-06T02:57:36.740Z,5.08
2022-11-06T03:00:03.060Z,5.11
2022-11-06T03:02:29.285Z,5.10
2022-11-06T03:04:55.574Z,5.06
2022-11-06T03:07:21.767Z,4.89
2022-11-06T03:09:47.955Z,4.94
2022-11-06T03:12:14.132Z,5.00
2022-11-06T03:14:40.322Z,4.91
2022-11-06T03:17:06.507Z,4.77
2022-11-06T03:19:32.684Z,4.62
2022-11-06T03:21:58.923Z,4.90
2022-11-06T03:24:30.898Z,4.91
2022-11-06T03:26:57.488Z,4.80
2022-11-06T03:29:23.706Z,4.54
2022-11-06T03:31:49.902Z,4.62
2022-11-06T03:34:16.090Z,4.77
2022-11-06T03:36:42.287Z,4.82
2022-11-06T03:39:08.461Z,4.79
2022-11-06T03:41:34.722Z,4.78
2022-11-06T03:44:00.953Z,4.81
2022-11-06T03:46:27.146Z,4.79
2022-11-06T03:48:53.399Z,4.67
2022-11-06T03:51:19.584Z,4.70
2022-11-06T03:53:45.792Z,4.73
2022-11-06T03:56:11.982Z,4.69
2022-11-06T03:58:38.208Z,4.76
2022-11-06T04:01:04.404Z,4.73
2022-11-06T04:03:30.590Z,4.67
2022-11-06T04:05:56.773Z,4.68
2022-11-06T04:08:41.922Z,4.66
2022-11-06T04:11:26.667Z,4.70
2022-11-06T04:14:00.748Z,4.62
2022-11-06T04:16:26.969Z,4.59
2022-11-06T04:18:53.146Z,4.50
2022-11-06T04:21:22.370Z,4.56
2022-11-06T04:24:08.505Z,4.57
2022-11-06T04:26:37.466Z,4.49
2022-11-06T04:29:03.656Z,4.51
2022-11-06T04:31:29.899Z,4.55
2022-11-06T04:33:56.079Z,4.55
2022-11-06T04:36:22.258Z,4.60
2022-11-06T04:38:48.443Z,4.55
2022-11-06T04:41:14.654Z,4.51
2022-11-06T04:43:40.976Z,4.34
2022-11-06T04:46:07.153Z,4.19
2022-11-06T04:48:33.332Z,4.38
2022-11-06T04:50:59.529Z,4.41
2022-11-06T04:53:25.749Z,4.41
2022-11-06T04:55:51.958Z,4.38
2022-11-06T04:58:18.147Z,4.37
2022-11-06T05:00:44.372Z,4.35
2022-11-06T05:03:10.568Z,4.37
2022-11-06T05:05:36.760Z,4.37
2022-11-06T05:08:02.943Z,4.28
2022-11-06T05:10:29.148Z,4.35
2022-11-06T05:12:55.339Z,4.27
2022-11-06T05:15:21.528Z,4.37
2022-11-06T05:17:47.833Z,4.29
2022-11-06T05:20:14.008Z,4.02
2022-11-06T05:22:58.798Z,4.12
2022-11-06T05:25:24.981Z,4.23
2022-11-06T05:27:51.199Z,4.06
2022-11-06T05:30:17.392Z,4.10
2022-11-06T05:32:43.581Z,4.24
2022-11-06T05:35:09.783Z,4.20
2022-11-06T05:37:35.962Z,4.13
2022-11-06T05:40:02.284Z,4.13
2022-11-06T05:42:28.464Z,4.18
2022-11-06T05:44:54.788Z,4.13
2022-11-06T05:47:20.978Z,4.11
2022-11-06T05:49:47.171Z,4.01
2022-11-06T05:52:13.358Z,4.13
2022-11-06T05:54:39.532Z,4.10
2022-11-06T05:57:05.733Z,4.14
2022-11-06T05:59:31.936Z,4.13
2022-11-06T06:01:59.539Z,3.98
2022-11-06T06:04:25.898Z,4.06
2022-11-06T06:06:52.079Z,4.01
2022-11-06T06:09:18.273Z,4.03
2022-11-06T06:11:44.453Z,4.01
2022-11-06T06:14:10.630Z,4.14
2022-11-06T06:16:36.839Z,4.02
2022-11-06T06:19:03.041Z,4.08
2022-11-06T06:21:29.298Z,4.07
2022-11-06T06:23:55.506Z,4.05
2022-11-06T06:26:21.988Z,4.04
2022-11-06T06:28:48.520Z,4.10
2022-11-06T06:31:14.698Z,4.13
2022-11-06T06:33:40.909Z,4.02
2022-11-06T06:36:07.100Z,4.13
2022-11-06T06:41:23.421Z,4.17
2022-11-06T06:43:49.649Z,4.17
2022-11-06T06:46:15.842Z,4.29
2022-11-06T06:48:42.184Z,4.36
2022-11-06T06:51:08.373Z,4.47
2022-11-06T06:53:34.579Z,4.54
2022-11-06T06:56:00.884Z,4.54
2022-11-06T06:58:27.218Z,4.71
2022-11-06T07:00:53.487Z,4.78
2022-11-06T07:03:19.705Z,4.82
2022-11-06T07:05:46.750Z,4.93
2022-11-06T07:08:13.305Z,5.17
2022-11-06T07:10:39.961Z,5.28
2022-11-06T07:13:06.153Z,5.31
2022-11-06T07:15:32.347Z,5.39
2022-11-06T07:17:58.538Z,5.54
2022-11-06T07:20:24.732Z,5.43
2022-11-06T07:22:50.917Z,5.62
2022-11-06T07:25:17.110Z,5.65
2022-11-06T07:27:43.304Z,5.77
2022-11-06T07:30:09.541Z,5.89
2022-11-06T07:32:35.872Z,5.84
2022-11-06T07:35:02.051Z,5.93
2022-11-06T07:37:28.386Z,5.91
2022-11-06T07:39:54.619Z,5.87
2022-11-06T07:42:20.829Z,6.06
2022-11-06T07:44:47.014Z,6.23
2022-11-06T07:47:13.233Z,6.61
2022-11-06T07:49:39.417Z,6.67
2022-11-06T07:52:05.619Z,6.65
2022-11-06T07:54:31.805Z,6.79
2022-11-06T07:56:57.994Z,6.79
2022-11-06T07:59:24.177Z,7.05
2022-11-06T08:01:50.534Z,6.82
2022-11-06T08:04:16.788Z,7.16
2022-11-06T08:06:42.969Z,7.15
2022-11-06T08:09:09.158Z,7.21
2022-11-06T08:11:35.367Z,7.40
2022-11-06T08:14:01.555Z,7.53
2022-11-06T08:16:27.746Z,7.67
2022-11-06T08:18:53.942Z,7.55
2022-11-06T08:21:20.153Z,7.87
2022-11-06T08:23:46.328Z,7.70
2022-11-06T08:26:12.560Z,8.02
2022-11-06T08:28:38.783Z,8.04
2022-11-06T08:31:05.053Z,8.05
2022-11-06T08:33:31.270Z,7.83
2022-11-06T08:35:57.457Z,8.12
2022-11-06T08:38:26.630Z,8.07
2022-11-06T08:40:53.987Z,8.32
2022-11-06T08:43:20.336Z,8.54
2022-11-06T08:45:46.517Z,8.52
2022-11-06T08:48:12.703Z,8.47
2022-11-06T08:50:38.934Z,8.41
2022-11-06T08:53:06.220Z,8.76
2022-11-06T08:55:32.432Z,8.75
2022-11-06T08:57:58.621Z,9.03
2022-11-06T09:00:24.826Z,8.93
2022-11-06T09:02:51.247Z,8.99
2022-11-06T09:05:17.444Z,9.14
2022-11-06T09:07:43.635Z,9.40
2022-11-06T09:10:09.823Z,9.24
2022-11-06T09:12:36.018Z,9.49
2022-11-06T09:15:02.245Z,9.79
2022-11-06T09:17:28.417Z,9.60
2022-11-06T09:19:54.617Z,9.76
2022-11-06T09:22:20.875Z,9.97
2022-11-06T09:25:03.153Z,9.86
2022-11-06T09:27:30.535Z,10.08
2022-11-06T09:29:56.799Z,10.14
2022-11-06T09:35:27.370Z,9.94
2022-11-06T09:37:53.651Z,9.88
2022-11-06T09:40:20.178Z,10.15
2022-11-06T09:42:46.601Z,10.40
2022-11-06T09:45:12.926Z,10.70
2022-11-06T09:47:39.205Z,10.51
2022-11-06T09:50:05.462Z,10.85
2022-11-06T09:52:31.773Z,10.77
2022-11-06T09:55:00.735Z,10.97
2022-11-06T09:57:27.862Z,10.87
2022-11-06T09:59:54.127Z,10.79
2022-11-06T10:02:20.486Z,10.92
2022-11-06T10:04:47.168Z,11.18
2022-11-06T10:07:13.424Z,10.98
2022-11-06T10:09:39.669Z,10.92
2022-11-06T10:12:05.945Z,11.49
2022-11-06T10:14:32.199Z,11.27
2022-11-06T10:16:58.454Z,11.39
2022-11-06T10:19:24.815Z,11.39
2022-11-06T10:21:51.146Z,11.86
2022-11-06T10:24:17.396Z,11.79
2022-11-06T10:26:43.658Z,11.76
2022-11-06T10:29:09.916Z,12.04
2022-11-06T10:31:36.587Z,12.14
2022-11-06T10:34:02.838Z,12.33
2022-11-06T10:36:29.119Z,12.13
2022-11-06T10:38:55.371Z,11.95
2022-11-06T10:41:21.649Z,11.78
2022-11-06T10:43:47.906Z,11.98
2022-11-06T10:46:14.181Z,12.18
2022-11-06T10:48:41.725Z,12.27
2022-11-06T10:51:08.155Z,11.95
2022-11-06T10:53:34.410Z,12.31
2022-11-06T10:56:00.662Z,12.48
2022-11-06T10:58:26.918Z,13.04
2022-11-06T11:00:53.240Z,12.64
2022-11-06T11:03:19.725Z,12.87
2022-11-06T11:05:46.018Z,13.02
2022-11-06T11:08:12.461Z,13.16
2022-11-06T11:10:42.564Z,13.14
2022-11-06T11:13:09.168Z,13.38
2022-11-06T11:15:37.714Z,12.90
2022-11-06T11:18:04.092Z,12.97
2022-11-06T11:20:30.355Z,12.99
2022-11-06T11:22:56.824Z,13.13
2022-11-06T11:25:23.125Z,12.91
2022-11-06T11:27:49.387Z,13.00
2022-11-06T11:30:15.653Z,12.81
2022-11-06T11:32:41.928Z,13.14
2022-11-06T11:35:08.184Z,13.48
2022-11-06T11:37:36.016Z,13.56
2022-11-06T11:40:02.300Z,13.29
2022-11-06T11:42:28.667Z,13.09
2022-11-06T11:44:54.924Z,13.17
2022-11-06T11:47:21.221Z,13.10
2022-11-06T11:49:47.476Z,13.10
2022-11-06T11:52:13.734Z,12.80
2022-11-06T11:54:40.401Z,13.11
2022-11-06T11:57:07.541Z,13.06
2022-11-06T11:59:33.964Z,13.28
2022-11-06T12:02:00.320Z,12.96
2022-11-06T12:04:26.696Z,13.31
2022-11-06T12:06:52.965Z,13.40
2022-11-06T12:09:19.224Z,13.23
2022-11-06T12:11:45.636Z,13.23
2022-11-06T12:14:11.900Z,13.23
2022-11-06T12:16:38.476Z,13.25
2022-11-06T12:19:04.748Z,13.34
2022-11-06T12:21:31.058Z,13.51
2022-11-06T12:23:57.322Z,13.61
2022-11-06T12:26:23.678Z,13.24
2022-11-06T12:28:49.940Z,13.44
2022-11-06T12:31:16.218Z,13.63
2022-11-06T12:34:09.911Z,13.70
2022-11-06T12:36:28.735Z,13.31
2022-11-06T12:38:54.999Z,13.49
2022-11-06T12:41:21.256Z,13.25
2022-11-06T12:43:47.748Z,13.30
2022-11-06T12:46:14.030Z,13.06
2022-11-06T12:48:40.340Z,13.27
2022-11-06T12:51:06.631Z,13.25
2022-11-06T12:53:32.890Z,13.38
2022-11-06T12:55:59.285Z,13.23
2022-11-06T12:58:25.541Z,13.60
2022-11-06T13:00:51.851Z,13.70
2022-11-06T13:03:18.216Z,13.44
2022-11-06T13:05:44.497Z,13.43
2022-11-06T13:08:10.872Z,12.93
2022-11-06T13:10:37.315Z,13.15
2022-11-06T13:13:03.578Z,13.22
2022-11-06T13:15:29.820Z,13.04
2022-11-06T13:17:56.067Z,13.07
2022-11-06T13:20:22.451Z,13.20
2022-11-06T13:22:48.713Z,13.00
2022-11-06T13:25:14.986Z,12.92
2022-11-06T13:27:41.302Z,12.94
2022-11-06T13:30:07.571Z,13.10
2022-11-06T13:32:34.029Z,13.26
2022-11-06T13:35:00.293Z,12.98
2022-11-06T13:37:26.822Z,12.94
2022-11-06T13:39:53.073Z,13.07
2022-11-06T13:42:19.340Z,12.92
2022-11-06T13:44:45.592Z,13.00
2022-11-06T13:47:11.845Z,12.97
2022-11-06T13:49:38.106Z,12.84
2022-11-06T13:52:04.362Z,13.04
2022-11-06T13:54:30.975Z,12.99
2022-11-06T13:56:57.248Z,12.91
2022-11-06T13:59:24.051Z,12.90
2022-11-06T14:01:51.063Z,12.58
2022-11-06T14:04:17.425Z,12.60
2022-11-06T14:06:43.686Z,12.23
2022-11-06T14:09:09.946Z,12.02
2022-11-06T14:11:36.208Z,11.90
2022-11-06T14:14:02.527Z,11.62
2022-11-06T14:16:28.784Z,11.73
2022-11-06T14:18:55.230Z,11.77
2022-11-06T14:21:21.504Z,11.50
2022-11-06T14:23:47.793Z,11.46
2022-11-06T14:26:14.151Z,11.36
2022-11-06T14:28:40.441Z,11.23
2022-11-06T14:31:15.699Z,11.18
2022-11-06T14:33:43.494Z,11.10
2022-11-06T14:36:09.793Z,10.96
2022-11-06T14:38:36.065Z,11.06
2022-11-06T14:41:02.309Z,10.80
2022-11-06T14:43:28.650Z,10.76
2022-11-06T14:45:54.910Z,10.76
2022-11-06T14:48:21.395Z,10.68
2022-11-06T14:50:47.899Z,10.43
2022-11-06T14:53:14.153Z,10.23
2022-11-06T14:55:40.467Z,10.44
2022-11-06T14:58:06.770Z,10.08
2022-11-06T15:00:33.025Z,9.95
2022-11-06T15:02:59.276Z,9.97
2022-11-06T15:05:25.534Z,9.92
2022-11-06T15:08:07.820Z,9.68
2022-11-06T15:10:34.135Z,9.65
2022-11-06T15:13:00.478Z,9.73
2022-11-06T15:15:26.748Z,9.56
2022-11-06T15:17:53.005Z,9.52
2022-11-06T15:20:21.200Z,9.50
2022-11-06T15:22:47.492Z,9.29
2022-11-06T15:25:13.789Z,9.42
2022-11-06T15:27:43.031Z,9.18
2022-11-06T15:30:09.621Z,9.19
2022-11-06T15:32:35.903Z,9.23
2022-11-06T15:35:02.153Z,9.03
2022-11-06T15:37:28.409Z,9.03
2022-11-06T15:40:00.320Z,9.20
2022-11-06T15:42:27.057Z,8.90
2022-11-06T15:44:53.312Z,9.01
2022-11-06T15:47:19.888Z,8.99
2022-11-06T15:49:46.133Z,8.95
2022-11-06T15:52:12.387Z,8.97
2022-11-06T15:54:38.657Z,8.95
2022-11-06T15:57:04.920Z,9.00
2022-11-06T15:59:31.243Z,8.72
2022-11-06T16:01:57.562Z,8.77
2022-11-06T16:04:24.076Z,8.85
2022-11-06T16:06:50.264Z,8.82
2022-11-06T16:09:16.982Z,8.76
2022-11-06T16:11:46.340Z,8.62
2022-11-06T16:14:12.592Z,8.67
2022-11-06T16:16:38.839Z,8.57
2022-11-06T16:19:05.024Z,8.51
2022-11-06T16:21:32.139Z,8.53
2022-11-06T16:23:58.381Z,8.54
2022-11-06T16:26:24.629Z,8.44
2022-11-06T16:28:50.936Z,8.48
2022-11-06T16:31:17.292Z,8.40
2022-11-06T16:33:43.490Z,8.41
2022-11-06T16:36:11.328Z,8.13
2022-11-06T16:38:42.242Z,8.31
2022-11-06T16:41:08.643Z,8.29
2022-11-06T16:43:34.867Z,8.33
2022-11-06T16:46:05.216Z,8.26
2022-11-06T16:48:32.146Z,8.24
2022-11-06T16:50:59.529Z,8.22
2022-11-06T16:53:25.816Z,8.27
2022-11-06T16:55:52.011Z,8.13
2022-11-06T16:58:18.203Z,8.07
2022-11-06T17:00:44.438Z,7.88
2022-11-06T17:03:11.114Z,8.02
2022-11-06T17:05:37.395Z,7.82
2022-11-06T17:08:03.586Z,7.95
2022-11-06T17:10:29.800Z,7.95
2022-11-06T17:12:55.978Z,7.86
2022-11-06T17:15:25.314Z,7.88
2022-11-06T17:17:51.506Z,7.85
2022-11-06T17:20:17.702Z,7.89
2022-11-06T17:22:43.895Z,7.78
2022-11-06T17:25:10.116Z,7.92
2022-11-06T17:27:36.318Z,7.73
2022-11-06T17:30:02.550Z,7.73
2022-11-06T17:32:28.744Z,7.79
2022-11-06T17:34:54.939Z,7.78
2022-11-06T17:37:22.011Z,7.64
2022-11-06T17:39:48.348Z,7.60
2022-11-06T17:42:14.540Z,7.66
2022-11-06T17:44:40.802Z,7.55
2022-11-06T17:47:06.994Z,7.65
2022-11-06T17:49:33.173Z,7.56
2022-11-06T17:52:02.362Z,7.52
2022-11-06T17:54:28.586Z,7.44
2022-11-06T17:56:55.019Z,7.29
2022-11-06T17:59:21.275Z,7.58
2022-11-06T18:01:47.976Z,7.63
2022-11-06T18:04:14.297Z,7.55
2022-11-06T18:06:42.302Z,7.42
2022-11-06T18:09:08.591Z,7.53
2022-11-06T18:11:34.865Z,7.41
2022-11-06T18:14:01.272Z,7.31
2022-11-06T18:16:27.894Z,7.38
2022-11-06T18:18:54.126Z,7.45
2022-11-06T18:21:23.407Z,7.39
2022-11-06T18:23:49.659Z,7.31
2022-11-06T18:26:15.865Z,7.51
2022-11-06T18:28:42.044Z,7.50
2022-11-06T18:31:08.463Z,7.43
2022-11-06T18:36:25.019Z,7.46
2022-11-06T18:38:51.209Z,7.46
2022-11-06T18:41:17.407Z,7.43
2022-11-06T18:43:43.594Z,7.42
2022-11-06T18:46:09.787Z,7.46
2022-11-06T18:48:35.981Z,7.56
2022-11-06T18:51:02.260Z,7.60
2022-11-06T18:53:28.435Z,7.62
2022-11-06T18:55:54.620Z,7.51
2022-11-06T18:58:20.991Z,7.64
2022-11-06T19:00:48.292Z,7.59
2022-11-06T19:03:14.482Z,7.45
2022-11-06T19:05:40.686Z,7.66
2022-11-06T19:08:06.870Z,7.48
2022-11-06T19:10:33.076Z,7.48
2022-11-06T19:12:59.810Z,7.43
2022-11-06T19:15:26.301Z,7.52
2022-11-06T19:17:54.763Z,7.49
2022-11-06T19:20:21.106Z,7.52
2022-11-06T19:22:47.635Z,7.61
2022-11-06T19:25:13.829Z,7.55
2022-11-06T19:27:40.008Z,7.62
2022-11-06T19:30:06.235Z,7.61
2022-11-06T19:32:32.460Z,7.60
2022-11-06T19:34:58.975Z,7.63
2022-11-06T19:37:25.166Z,7.60
2022-11-06T19:39:53.245Z,7.64
2022-11-06T19:42:19.506Z,7.56
2022-11-06T19:44:45.694Z,7.46
2022-11-06T19:47:11.898Z,7.59
2022-11-06T19:49:38.098Z,7.58
2022-11-06T19:52:43.238Z,7.57
2022-11-06T19:54:50.490Z,7.43
2022-11-06T19:57:36.679Z,7.56
2022-11-06T20:00:07.173Z,7.51
2022-11-06T20:02:36.459Z,7.40
2022-11-06T20:05:02.729Z,7.45
2022-11-06T20:07:29.024Z,7.44
2022-11-06T20:09:57.222Z,7.52
2022-11-06T20:12:23.595Z,7.55
2022-11-06T20:14:50.536Z,7.52
2022-11-06T20:17:18.091Z,7.55
2022-11-06T20:19:44.348Z,7.60
2022-11-06T20:22:10.732Z,7.61
2022-11-06T20:24:37.864Z,7.67
2022-11-06T20:27:07.359Z,7.67
2022-11-06T20:29:37.298Z,7.66
2022-11-06T20:32:03.539Z,7.56
2022-11-06T20:34:29.716Z,7.62
2022-11-06T20:36:56.243Z,7.62
2022-11-06T20:39:22.426Z,7.71
2022-11-06T20:41:48.797Z,7.74
2022-11-06T20:44:15.021Z,7.72
2022-11-06T20:46:41.286Z,7.72
2022-11-06T20:49:08.486Z,7.82
2022-11-06T20:51:48.241Z,7.67
2022-11-06T20:54:20.303Z,7.79
2022-11-06T20:56:48.360Z,7.74
2022-11-06T20:59:15.973Z,7.73
2022-11-06T21:01:42.956Z,7.91
2022-11-06T21:04:09.578Z,7.79
2022-11-06T21:06:38.721Z,7.91
2022-11-06T21:09:05.000Z,7.81
2022-11-06T21:11:31.195Z,7.91
2022-11-06T21:13:57.429Z,7.88
2022-11-06T21:16:24.256Z,8.04
2022-11-06T21:18:50.524Z,8.05
2022-11-06T21:21:16.832Z,8.06
2022-11-06T21:23:43.070Z,8.09
2022-11-06T21:26:09.246Z,8.05
2022-11-06T21:28:35.456Z,8.02
2022-11-06T21:31:01.649Z,8.06
2022-11-06T21:33:28.113Z,8.09
2022-11-06T21:35:54.332Z,7.99
2022-11-06T21:38:20.509Z,8.12
2022-11-06T21:40:46.700Z,8.11
2022-11-06T21:43:13.244Z,8.09
2022-11-06T22:00:14.185Z,8.07
2022-11-06T22:02:40.921Z,8.09
2022-11-06T22:05:07.234Z,8.16
2022-11-06T22:07:33.431Z,8.20
2022-11-06T22:09:59.628Z,8.16
2022-11-06T22:12:25.805Z,8.22
2022-11-06T22:14:52.209Z,8.27
2022-11-06T22:17:18.405Z,8.28
2022-11-06T22:19:45.001Z,8.35
2022-11-06T22:22:11.186Z,8.23
2022-11-06T22:24:39.197Z,8.25
2022-11-06T22:27:05.478Z,8.30
2022-11-06T22:29:31.656Z,8.32
2022-11-06T22:31:57.833Z,8.28
2022-11-06T22:34:24.013Z,8.28
2022-11-06T22:36:50.202Z,8.21
2022-11-06T22:39:16.455Z,8.20
2022-11-06T22:41:42.653Z,8.37
2022-11-06T22:44:09.033Z,8.33
2022-11-06T22:46:35.301Z,8.36
2022-11-06T22:49:01.830Z,8.45
2022-11-06T22:51:28.020Z,8.43
2022-11-06T22:53:54.351Z,8.42
2022-11-06T22:56:20.780Z,8.51
2022-11-06T22:58:46.970Z,8.45
2022-11-06T23:01:13.161Z,8.60
2022-11-06T23:03:39.662Z,8.57
2022-11-06T23:06:06.172Z,8.56
2022-11-06T23:08:32.789Z,8.57
2022-11-06T23:10:58.996Z,8.61
2022-11-06T23:13:25.184Z,8.48
2022-11-06T23:15:51.582Z,8.59
2022-11-06T23:18:17.778Z,8.51
2022-11-06T23:20:44.033Z,8.51
2022-11-06T23:23:10.350Z,8.30
2022-11-06T23:25:36.821Z,8.06
2022-11-06T23:28:03.006Z,8.39
2022-11-06T23:30:32.182Z,8.50
2022-11-06T23:32:58.367Z,8.27
2022-11-06T23:35:30.894Z,8.30
2022-11-06T23:37:58.596Z,8.37
2022-11-06T23:40:24.785Z,8.46
2022-11-06T23:42:51.027Z,8.57
2022-11-06T23:45:35.741Z,8.64
2022-11-06T23:48:07.468Z,8.53
2022-11-06T23:50:34.727Z,8.37
2022-11-06T23:53:00.917Z,8.29
2022-11-06T23:55:27.148Z,8.39
2022-11-06T23:57:53.343Z,8.45
